sensor_id;sensor_type;location;lat;lon;timestamp;pressure;altitude;pressure_sealevel;temperature
69552;BMP280;63774;45.292;11.784;2023-09-19T00:02:02;101497.18;;;26.03
69552;BMP280;63774;45.292;11.784;2023-09-19T00:04:32;101495.38;;;26.03
69552;BMP280;63774;45.292;11.784;2023-09-19T00:06:59;101493.05;;;26.03
69552;BMP280;63774;45.292;11.784;2023-09-19T00:09:24;101493.38;;;26.01
69552;BMP280;63774;45.292;11.784;2023-09-19T00:11:53;101493.30;;;26.02
69552;BMP280;63774;45.292;11.784;2023-09-19T00:14:18;101493.61;;;26.00
69552;BMP280;63774;45.292;11.784;2023-09-19T00:16:44;101495.63;;;25.99
69552;BMP280;63774;45.292;11.784;2023-09-19T00:19:12;101491.80;;;25.95
69552;BMP280;63774;45.292;11.784;2023-09-19T00:21:39;101488.80;;;25.94
69552;BMP280;63774;45.292;11.784;2023-09-19T00:24:06;101490.73;;;25.92
69552;BMP280;63774;45.292;11.784;2023-09-19T00:26:33;101487.38;;;25.91
69552;BMP280;63774;45.292;11.784;2023-09-19T00:28:59;101490.20;;;25.91
69552;BMP280;63774;45.292;11.784;2023-09-19T00:31:30;101484.77;;;25.90
69552;BMP280;63774;45.292;11.784;2023-09-19T00:33:55;101482.70;;;25.89
69552;BMP280;63774;45.292;11.784;2023-09-19T00:36:25;101479.42;;;25.89
69552;BMP280;63774;45.292;11.784;2023-09-19T00:38:50;101479.65;;;25.86
69552;BMP280;63774;45.292;11.784;2023-09-19T00:41:16;101475.45;;;25.81
69552;BMP280;63774;45.292;11.784;2023-09-19T00:43:41;101473.17;;;25.79
69552;BMP280;63774;45.292;11.784;2023-09-19T00:46:07;101473.04;;;25.81
69552;BMP280;63774;45.292;11.784;2023-09-19T00:48:40;101474.45;;;25.78
69552;BMP280;63774;45.292;11.784;2023-09-19T00:51:09;101475.55;;;25.76
69552;BMP280;63774;45.292;11.784;2023-09-19T00:53:35;101467.19;;;25.75
69552;BMP280;63774;45.292;11.784;2023-09-19T00:56:04;101474.17;;;25.75
69552;BMP280;63774;45.292;11.784;2023-09-19T00:58:34;101472.54;;;25.75
69552;BMP280;63774;45.292;11.784;2023-09-19T01:01:01;101474.30;;;25.73
69552;BMP280;63774;45.292;11.784;2023-09-19T01:03:27;101471.34;;;25.70
69552;BMP280;63774;45.292;11.784;2023-09-19T01:05:53;101470.04;;;25.68
69552;BMP280;63774;45.292;11.784;2023-09-19T01:08:18;101475.56;;;25.71
69552;BMP280;63774;45.292;11.784;2023-09-19T01:10:55;101473.89;;;25.68
69552;BMP280;63774;45.292;11.784;2023-09-19T01:27:59;101468.22;;;25.56
69552;BMP280;63774;45.292;11.784;2023-09-19T01:30:33;101471.52;;;25.56
69552;BMP280;63774;45.292;11.784;2023-09-19T01:33:01;101470.45;;;25.52
69552;BMP280;63774;45.292;11.784;2023-09-19T01:35:29;101469.46;;;25.52
69552;BMP280;63774;45.292;11.784;2023-09-19T01:37:54;101472.59;;;25.49
69552;BMP280;63774;45.292;11.784;2023-09-19T01:40:20;101470.28;;;25.49
69552;BMP280;63774;45.292;11.784;2023-09-19T01:43:16;101469.95;;;25.49
69552;BMP280;63774;45.292;11.784;2023-09-19T01:51:06;101465.27;;;25.48
69552;BMP280;63774;45.292;11.784;2023-09-19T01:53:36;101466.95;;;25.44
69552;BMP280;63774;45.292;11.784;2023-09-19T01:56:05;101466.02;;;25.45
69552;BMP280;63774;45.292;11.784;2023-09-19T01:58:45;101469.83;;;25.44
69552;BMP280;63774;45.292;11.784;2023-09-19T02:01:15;101467.19;;;25.45
69552;BMP280;63774;45.292;11.784;2023-09-19T02:03:41;101464.73;;;25.43
69552;BMP280;63774;45.292;11.784;2023-09-19T02:06:16;101466.71;;;25.40
69552;BMP280;63774;45.292;11.784;2023-09-19T02:08:44;101468.89;;;25.44
69552;BMP280;63774;45.292;11.784;2023-09-19T02:11:12;101467.98;;;25.41
69552;BMP280;63774;45.292;11.784;2023-09-19T02:13:38;101468.45;;;25.42
69552;BMP280;63774;45.292;11.784;2023-09-19T02:16:04;101468.83;;;25.44
69552;BMP280;63774;45.292;11.784;2023-09-19T02:18:31;101469.81;;;25.43
69552;BMP280;63774;45.292;11.784;2023-09-19T02:21:00;101468.41;;;25.45
69552;BMP280;63774;45.292;11.784;2023-09-19T02:23:26;101469.81;;;25.45
69552;BMP280;63774;45.292;11.784;2023-09-19T02:25:54;101462.63;;;25.47
69552;BMP280;63774;45.292;11.784;2023-09-19T02:28:20;101467.83;;;25.48
69552;BMP280;63774;45.292;11.784;2023-09-19T02:30:48;101466.45;;;25.49
69552;BMP280;63774;45.292;11.784;2023-09-19T02:33:14;101467.83;;;25.48
69552;BMP280;63774;45.292;11.784;2023-09-19T02:35:40;101464.86;;;25.48
69552;BMP280;63774;45.292;11.784;2023-09-19T02:38:05;101461.48;;;25.45
69552;BMP280;63774;45.292;11.784;2023-09-19T02:40:33;101461.43;;;25.44
69552;BMP280;63774;45.292;11.784;2023-09-19T02:43:01;101459.31;;;25.43
69552;BMP280;63774;45.292;11.784;2023-09-19T02:45:27;101462.08;;;25.42
69552;BMP280;63774;45.292;11.784;2023-09-19T02:47:53;101466.89;;;25.44
69552;BMP280;63774;45.292;11.784;2023-09-19T02:50:18;101465.91;;;25.40
69552;BMP280;63774;45.292;11.784;2023-09-19T02:52:45;101467.64;;;25.40
69552;BMP280;63774;45.292;11.784;2023-09-19T02:55:17;101471.23;;;25.40
69552;BMP280;63774;45.292;11.784;2023-09-19T02:57:48;101469.21;;;25.38
69552;BMP280;63774;45.292;11.784;2023-09-19T03:00:14;101475.37;;;25.41
69552;BMP280;63774;45.292;11.784;2023-09-19T03:02:40;101480.38;;;25.38
69552;BMP280;63774;45.292;11.784;2023-09-19T03:05:07;101475.35;;;25.39
69552;BMP280;63774;45.292;11.784;2023-09-19T03:07:33;101475.41;;;25.36
69552;BMP280;63774;45.292;11.784;2023-09-19T03:09:59;101468.98;;;25.40
69552;BMP280;63774;45.292;11.784;2023-09-19T03:12:28;101465.20;;;25.41
69552;BMP280;63774;45.292;11.784;2023-09-19T03:14:53;101465.89;;;25.39
69552;BMP280;63774;45.292;11.784;2023-09-19T03:17:19;101469.73;;;25.40
69552;BMP280;63774;45.292;11.784;2023-09-19T03:19:45;101470.59;;;25.39
69552;BMP280;63774;45.292;11.784;2023-09-19T03:22:13;101469.30;;;25.35
69552;BMP280;63774;45.292;11.784;2023-09-19T03:24:38;101470.09;;;25.36
69552;BMP280;63774;45.292;11.784;2023-09-19T03:27:04;101463.67;;;25.34
69552;BMP280;63774;45.292;11.784;2023-09-19T03:29:29;101467.92;;;25.32
69552;BMP280;63774;45.292;11.784;2023-09-19T03:31:55;101468.92;;;25.35
69552;BMP280;63774;45.292;11.784;2023-09-19T03:34:20;101465.34;;;25.36
69552;BMP280;63774;45.292;11.784;2023-09-19T03:36:46;101462.63;;;25.35
69552;BMP280;63774;45.292;11.784;2023-09-19T03:39:12;101457.81;;;25.33
69552;BMP280;63774;45.292;11.784;2023-09-19T03:41:40;101459.42;;;25.34
69552;BMP280;63774;45.292;11.784;2023-09-19T03:44:05;101461.77;;;25.33
69552;BMP280;63774;45.292;11.784;2023-09-19T03:46:31;101466.23;;;25.39
69552;BMP280;63774;45.292;11.784;2023-09-19T03:48:57;101467.59;;;25.42
69552;BMP280;63774;45.292;11.784;2023-09-19T03:51:22;101464.59;;;25.43
69552;BMP280;63774;45.292;11.784;2023-09-19T03:53:48;101461.20;;;25.46
69552;BMP280;63774;45.292;11.784;2023-09-19T03:56:17;101459.63;;;25.49
69552;BMP280;63774;45.292;11.784;2023-09-19T03:58:42;101451.95;;;25.52
69552;BMP280;63774;45.292;11.784;2023-09-19T04:01:07;101452.54;;;25.54
69552;BMP280;63774;45.292;11.784;2023-09-19T04:03:33;101453.88;;;25.53
69552;BMP280;63774;45.292;11.784;2023-09-19T04:06:13;101451.48;;;25.53
69552;BMP280;63774;45.292;11.784;2023-09-19T04:08:39;101454.59;;;25.52
69552;BMP280;63774;45.292;11.784;2023-09-19T04:11:05;101456.34;;;25.56
69552;BMP280;63774;45.292;11.784;2023-09-19T04:13:30;101451.44;;;25.57
69552;BMP280;63774;45.292;11.784;2023-09-19T04:15:55;101449.36;;;25.57
69552;BMP280;63774;45.292;11.784;2023-09-19T04:18:21;101449.98;;;25.60
69552;BMP280;63774;45.292;11.784;2023-09-19T04:20:52;101449.25;;;25.62
69552;BMP280;63774;45.292;11.784;2023-09-19T04:23:19;101449.78;;;25.64
69552;BMP280;63774;45.292;11.784;2023-09-19T04:25:47;101447.73;;;25.65
69552;BMP280;63774;45.292;11.784;2023-09-19T04:28:13;101447.30;;;25.68
69552;BMP280;63774;45.292;11.784;2023-09-19T04:30:39;101448.64;;;25.69
69552;BMP280;63774;45.292;11.784;2023-09-19T04:33:07;101450.06;;;25.70
69552;BMP280;63774;45.292;11.784;2023-09-19T04:35:33;101454.97;;;25.73
69552;BMP280;63774;45.292;11.784;2023-09-19T04:37:59;101456.56;;;25.74
69552;BMP280;63774;45.292;11.784;2023-09-19T04:40:24;101458.09;;;25.75
69552;BMP280;63774;45.292;11.784;2023-09-19T04:42:57;101457.29;;;25.77
69552;BMP280;63774;45.292;11.784;2023-09-19T04:45:23;101460.11;;;25.77
69552;BMP280;63774;45.292;11.784;2023-09-19T04:47:49;101461.49;;;25.76
69552;BMP280;63774;45.292;11.784;2023-09-19T04:50:14;101462.60;;;25.77
69552;BMP280;63774;45.292;11.784;2023-09-19T04:52:44;101468.10;;;25.77
69552;BMP280;63774;45.292;11.784;2023-09-19T04:55:14;101466.41;;;25.77
69552;BMP280;63774;45.292;11.784;2023-09-19T04:57:43;101465.80;;;25.77
69552;BMP280;63774;45.292;11.784;2023-09-19T05:00:12;101471.44;;;25.77
69552;BMP280;63774;45.292;11.784;2023-09-19T05:02:38;101473.15;;;25.75
69552;BMP280;63774;45.292;11.784;2023-09-19T05:05:06;101475.09;;;25.76
69552;BMP280;63774;45.292;11.784;2023-09-19T05:07:32;101478.36;;;25.76
69552;BMP280;63774;45.292;11.784;2023-09-19T05:09:59;101481.73;;;25.79
69552;BMP280;63774;45.292;11.784;2023-09-19T05:12:26;101487.19;;;25.80
69552;BMP280;63774;45.292;11.784;2023-09-19T05:14:51;101492.73;;;25.80
69552;BMP280;63774;45.292;11.784;2023-09-19T05:17:16;101498.19;;;25.81
69552;BMP280;63774;45.292;11.784;2023-09-19T05:19:42;101503.91;;;25.80
69552;BMP280;63774;45.292;11.784;2023-09-19T05:22:08;101506.78;;;25.80
69552;BMP280;63774;45.292;11.784;2023-09-19T05:24:33;101509.54;;;25.82
69552;BMP280;63774;45.292;11.784;2023-09-19T05:26:58;101512.66;;;25.81
69552;BMP280;63774;45.292;11.784;2023-09-19T05:29:24;101516.70;;;25.82
69552;BMP280;63774;45.292;11.784;2023-09-19T05:31:50;101520.17;;;25.82
69552;BMP280;63774;45.292;11.784;2023-09-19T05:34:16;101515.48;;;25.81
69552;BMP280;63774;45.292;11.784;2023-09-19T05:36:41;101518.47;;;25.83
69552;BMP280;63774;45.292;11.784;2023-09-19T05:39:07;101518.67;;;25.83
69552;BMP280;63774;45.292;11.784;2023-09-19T05:41:35;101527.21;;;25.82
69552;BMP280;63774;45.292;11.784;2023-09-19T05:44:05;101533.33;;;25.79
69552;BMP280;63774;45.292;11.784;2023-09-19T05:46:32;101532.81;;;25.75
69552;BMP280;63774;45.292;11.784;2023-09-19T05:48:58;101532.36;;;25.74
69552;BMP280;63774;45.292;11.784;2023-09-19T05:51:23;101530.57;;;25.77
69552;BMP280;63774;45.292;11.784;2023-09-19T05:53:49;101532.96;;;25.76
69552;BMP280;63774;45.292;11.784;2023-09-19T05:56:15;101531.19;;;25.76
69552;BMP280;63774;45.292;11.784;2023-09-19T05:58:41;101534.32;;;25.76
69552;BMP280;63774;45.292;11.784;2023-09-19T06:01:09;101541.61;;;25.79
69552;BMP280;63774;45.292;11.784;2023-09-19T06:03:35;101542.47;;;25.78
69552;BMP280;63774;45.292;11.784;2023-09-19T06:06:01;101545.02;;;25.80
69552;BMP280;63774;45.292;11.784;2023-09-19T06:08:27;101547.27;;;25.79
69552;BMP280;63774;45.292;11.784;2023-09-19T06:10:53;101551.27;;;25.80
69552;BMP280;63774;45.292;11.784;2023-09-19T06:13:19;101552.94;;;25.79
69552;BMP280;63774;45.292;11.784;2023-09-19T06:15:45;101561.63;;;25.76
69552;BMP280;63774;45.292;11.784;2023-09-19T06:18:12;101559.00;;;25.76
69552;BMP280;63774;45.292;11.784;2023-09-19T06:20:47;101560.97;;;25.77
69552;BMP280;63774;45.292;11.784;2023-09-19T06:23:13;101561.88;;;25.77
69552;BMP280;63774;45.292;11.784;2023-09-19T06:25:40;101565.54;;;25.74
69552;BMP280;63774;45.292;11.784;2023-09-19T06:28:06;101573.92;;;25.73
69552;BMP280;63774;45.292;11.784;2023-09-19T06:30:37;101576.89;;;25.71
69552;BMP280;63774;45.292;11.784;2023-09-19T06:33:05;101583.06;;;25.73
69552;BMP280;63774;45.292;11.784;2023-09-19T06:35:33;101586.79;;;25.70
69552;BMP280;63774;45.292;11.784;2023-09-19T06:37:59;101588.32;;;25.69
69552;BMP280;63774;45.292;11.784;2023-09-19T06:40:28;101595.16;;;25.71
69552;BMP280;63774;45.292;11.784;2023-09-19T06:42:53;101598.32;;;25.72
69552;BMP280;63774;45.292;11.784;2023-09-19T06:45:19;101598.31;;;25.74
69552;BMP280;63774;45.292;11.784;2023-09-19T06:47:47;101601.66;;;25.74
69552;BMP280;63774;45.292;11.784;2023-09-19T06:50:21;101606.84;;;25.72
69552;BMP280;63774;45.292;11.784;2023-09-19T06:52:52;101616.25;;;25.73
69552;BMP280;63774;45.292;11.784;2023-09-19T06:55:19;101616.71;;;25.71
69552;BMP280;63774;45.292;11.784;2023-09-19T06:57:48;101619.05;;;25.72
69552;BMP280;63774;45.292;11.784;2023-09-19T07:00:15;101619.26;;;25.70
69552;BMP280;63774;45.292;11.784;2023-09-19T07:05:27;101625.45;;;25.69
69552;BMP280;63774;45.292;11.784;2023-09-19T07:07:53;101623.59;;;25.68
69552;BMP280;63774;45.292;11.784;2023-09-19T07:10:20;101623.23;;;25.66
69552;BMP280;63774;45.292;11.784;2023-09-19T07:12:54;101625.42;;;25.66
69552;BMP280;63774;45.292;11.784;2023-09-19T07:15:20;101625.38;;;25.65
69552;BMP280;63774;45.292;11.784;2023-09-19T07:17:48;101625.09;;;25.65
69552;BMP280;63774;45.292;11.784;2023-09-19T07:20:14;101628.75;;;25.66
69552;BMP280;63774;45.292;11.784;2023-09-19T07:22:42;101632.27;;;25.65
69552;BMP280;63774;45.292;11.784;2023-09-19T07:25:07;101635.81;;;25.66
69552;BMP280;63774;45.292;11.784;2023-09-19T07:27:33;101633.39;;;25.66
69552;BMP280;63774;45.292;11.784;2023-09-19T07:29:59;101636.81;;;25.67
69552;BMP280;63774;45.292;11.784;2023-09-19T07:32:24;101639.27;;;25.67
69552;BMP280;63774;45.292;11.784;2023-09-19T07:34:49;101646.88;;;25.66
69552;BMP280;63774;45.292;11.784;2023-09-19T07:37:15;101648.90;;;25.67
69552;BMP280;63774;45.292;11.784;2023-09-19T07:39:41;101650.58;;;25.67
69552;BMP280;63774;45.292;11.784;2023-09-19T07:42:07;101652.98;;;25.69
69552;BMP280;63774;45.292;11.784;2023-09-19T07:44:35;101655.21;;;25.71
69552;BMP280;63774;45.292;11.784;2023-09-19T07:47:01;101653.86;;;25.71
69552;BMP280;63774;45.292;11.784;2023-09-19T07:49:28;101656.91;;;25.71
69552;BMP280;63774;45.292;11.784;2023-09-19T07:51:54;101660.95;;;25.72
69552;BMP280;63774;45.292;11.784;2023-09-19T07:54:20;101664.53;;;25.73
69552;BMP280;63774;45.292;11.784;2023-09-19T07:56:46;101668.20;;;25.75
69552;BMP280;63774;45.292;11.784;2023-09-19T07:59:12;101670.54;;;25.76
69552;BMP280;63774;45.292;11.784;2023-09-19T08:01:38;101671.02;;;25.77
69552;BMP280;63774;45.292;11.784;2023-09-19T08:04:05;101675.07;;;25.78
69552;BMP280;63774;45.292;11.784;2023-09-19T08:06:31;101676.52;;;25.76
69552;BMP280;63774;45.292;11.784;2023-09-19T08:08:56;101682.17;;;25.79
69552;BMP280;63774;45.292;11.784;2023-09-19T08:11:22;101683.15;;;25.81
69552;BMP280;63774;45.292;11.784;2023-09-19T08:13:50;101681.04;;;25.82
69552;BMP280;63774;45.292;11.784;2023-09-19T08:16:16;101683.95;;;25.83
69552;BMP280;63774;45.292;11.784;2023-09-19T08:18:47;101682.30;;;25.84
69552;BMP280;63774;45.292;11.784;2023-09-19T08:21:12;101678.66;;;25.84
69552;BMP280;63774;45.292;11.784;2023-09-19T08:23:40;101677.79;;;25.86
69552;BMP280;63774;45.292;11.784;2023-09-19T08:26:06;101676.29;;;25.89
69552;BMP280;63774;45.292;11.784;2023-09-19T08:28:36;101680.70;;;25.92
69552;BMP280;63774;45.292;11.784;2023-09-19T08:31:07;101683.54;;;25.93
69552;BMP280;63774;45.292;11.784;2023-09-19T08:33:35;101686.86;;;25.93
69552;BMP280;63774;45.292;11.784;2023-09-19T08:36:02;101686.94;;;25.94
69552;BMP280;63774;45.292;11.784;2023-09-19T08:38:31;101685.76;;;25.97
69552;BMP280;63774;45.292;11.784;2023-09-19T08:40:58;101686.72;;;25.98
69552;BMP280;63774;45.292;11.784;2023-09-19T08:43:27;101691.69;;;26.01
69552;BMP280;63774;45.292;11.784;2023-09-19T08:46:07;101692.27;;;25.99
69552;BMP280;63774;45.292;11.784;2023-09-19T08:48:34;101692.89;;;26.03
69552;BMP280;63774;45.292;11.784;2023-09-19T08:51:10;101690.19;;;26.04
69552;BMP280;63774;45.292;11.784;2023-09-19T08:54:04;101690.92;;;26.06
69552;BMP280;63774;45.292;11.784;2023-09-19T08:56:32;101687.79;;;26.05
69552;BMP280;63774;45.292;11.784;2023-09-19T08:59:06;101689.52;;;26.07
69552;BMP280;63774;45.292;11.784;2023-09-19T09:01:35;101690.07;;;26.08
69552;BMP280;63774;45.292;11.784;2023-09-19T09:04:02;101692.92;;;26.08
69552;BMP280;63774;45.292;11.784;2023-09-19T09:06:28;101696.31;;;26.08
69552;BMP280;63774;45.292;11.784;2023-09-19T09:08:54;101701.91;;;26.10
69552;BMP280;63774;45.292;11.784;2023-09-19T09:11:21;101702.68;;;26.09
69552;BMP280;63774;45.292;11.784;2023-09-19T09:13:47;101705.84;;;26.12
69552;BMP280;63774;45.292;11.784;2023-09-19T09:16:14;101706.23;;;26.14
69552;BMP280;63774;45.292;11.784;2023-09-19T09:18:44;101704.92;;;26.12
69552;BMP280;63774;45.292;11.784;2023-09-19T09:21:10;101706.61;;;26.14
69552;BMP280;63774;45.292;11.784;2023-09-19T09:23:36;101706.59;;;26.15
69552;BMP280;63774;45.292;11.784;2023-09-19T09:26:01;101706.40;;;26.17
69552;BMP280;63774;45.292;11.784;2023-09-19T09:28:33;101702.53;;;26.17
69552;BMP280;63774;45.292;11.784;2023-09-19T09:30:59;101696.91;;;26.18
69552;BMP280;63774;45.292;11.784;2023-09-19T09:33:28;101696.83;;;26.21
69552;BMP280;63774;45.292;11.784;2023-09-19T09:36:01;101697.27;;;26.23
69552;BMP280;63774;45.292;11.784;2023-09-19T09:38:46;101695.84;;;26.23
69552;BMP280;63774;45.292;11.784;2023-09-19T09:41:15;101695.80;;;26.24
69552;BMP280;63774;45.292;11.784;2023-09-19T09:43:53;101693.36;;;26.24
69552;BMP280;63774;45.292;11.784;2023-09-19T09:46:20;101691.07;;;26.26
69552;BMP280;63774;45.292;11.784;2023-09-19T09:49:01;101688.88;;;26.27
69552;BMP280;63774;45.292;11.784;2023-09-19T09:52:03;101680.08;;;26.27
69552;BMP280;63774;45.292;11.784;2023-09-19T09:54:34;101679.70;;;26.27
69552;BMP280;63774;45.292;11.784;2023-09-19T09:57:08;101676.65;;;26.26
69552;BMP280;63774;45.292;11.784;2023-09-19T10:02:29;101675.63;;;26.32
69552;BMP280;63774;45.292;11.784;2023-09-19T10:04:58;101677.64;;;26.34
69552;BMP280;63774;45.292;11.784;2023-09-19T10:07:33;101677.07;;;26.36
69552;BMP280;63774;45.292;11.784;2023-09-19T10:10:02;101679.54;;;26.35
69552;BMP280;63774;45.292;11.784;2023-09-19T10:12:48;101683.41;;;26.36
69552;BMP280;63774;45.292;11.784;2023-09-19T10:15:15;101679.41;;;26.35
69552;BMP280;63774;45.292;11.784;2023-09-19T10:17:43;101674.98;;;26.35
69552;BMP280;63774;45.292;11.784;2023-09-19T10:20:16;101672.30;;;26.36
69552;BMP280;63774;45.292;11.784;2023-09-19T10:23:07;101671.11;;;26.35
69552;BMP280;63774;45.292;11.784;2023-09-19T10:25:38;101672.17;;;26.36
69552;BMP280;63774;45.292;11.784;2023-09-19T10:28:10;101668.84;;;26.35
69552;BMP280;63774;45.292;11.784;2023-09-19T10:30:44;101665.81;;;26.33
69552;BMP280;63774;45.292;11.784;2023-09-19T10:33:15;101667.40;;;26.34
69552;BMP280;63774;45.292;11.784;2023-09-19T10:35:44;101669.94;;;26.36
69552;BMP280;63774;45.292;11.784;2023-09-19T10:38:11;101668.98;;;26.36
69552;BMP280;63774;45.292;11.784;2023-09-19T10:40:38;101669.52;;;26.38
69552;BMP280;63774;45.292;11.784;2023-09-19T10:43:20;101668.69;;;26.39
69552;BMP280;63774;45.292;11.784;2023-09-19T10:45:48;101668.13;;;26.41
69552;BMP280;63774;45.292;11.784;2023-09-19T10:48:17;101671.81;;;26.41
69552;BMP280;63774;45.292;11.784;2023-09-19T10:51:04;101671.08;;;26.41
69552;BMP280;63774;45.292;11.784;2023-09-19T10:53:51;101667.97;;;26.42
69552;BMP280;63774;45.292;11.784;2023-09-19T10:56:23;101659.52;;;26.43
69552;BMP280;63774;45.292;11.784;2023-09-19T10:58:48;101663.45;;;26.45
69552;BMP280;63774;45.292;11.784;2023-09-19T11:01:14;101660.42;;;26.46
69552;BMP280;63774;45.292;11.784;2023-09-19T11:03:41;101656.40;;;26.46
69552;BMP280;63774;45.292;11.784;2023-09-19T11:06:15;101654.90;;;26.46
69552;BMP280;63774;45.292;11.784;2023-09-19T11:08:55;101657.07;;;26.45
69552;BMP280;63774;45.292;11.784;2023-09-19T11:30:42;101644.77;;;26.49
69552;BMP280;63774;45.292;11.784;2023-09-19T11:33:24;101649.98;;;26.50
69552;BMP280;63774;45.292;11.784;2023-09-19T11:36:14;101652.66;;;26.51
69552;BMP280;63774;45.292;11.784;2023-09-19T11:49:18;101653.52;;;26.51
69552;BMP280;63774;45.292;11.784;2023-09-19T11:51:46;101649.66;;;26.49
69552;BMP280;63774;45.292;11.784;2023-09-19T11:54:17;101650.61;;;26.51
69552;BMP280;63774;45.292;11.784;2023-09-19T11:56:54;101648.33;;;26.51
69552;BMP280;63774;45.292;11.784;2023-09-19T11:59:21;101645.67;;;26.52
69552;BMP280;63774;45.292;11.784;2023-09-19T12:01:55;101642.48;;;26.53
69552;BMP280;63774;45.292;11.784;2023-09-19T12:04:44;101640.15;;;26.51
69552;BMP280;63774;45.292;11.784;2023-09-19T12:07:15;101634.95;;;26.53
69552;BMP280;63774;45.292;11.784;2023-09-19T12:09:50;101637.73;;;26.53
69552;BMP280;63774;45.292;11.784;2023-09-19T12:12:19;101634.98;;;26.53
69552;BMP280;63774;45.292;11.784;2023-09-19T12:14:52;101631.33;;;26.53
69552;BMP280;63774;45.292;11.784;2023-09-19T12:17:18;101627.27;;;26.53
69552;BMP280;63774;45.292;11.784;2023-09-19T12:19:51;101627.72;;;26.54
69552;BMP280;63774;45.292;11.784;2023-09-19T12:22:16;101626.52;;;26.55
69552;BMP280;63774;45.292;11.784;2023-09-19T12:24:44;101620.10;;;26.55
69552;BMP280;63774;45.292;11.784;2023-09-19T12:27:10;101620.89;;;26.56
69552;BMP280;63774;45.292;11.784;2023-09-19T12:29:44;101616.38;;;26.57
69552;BMP280;63774;45.292;11.784;2023-09-19T12:32:11;101615.21;;;26.56
69552;BMP280;63774;45.292;11.784;2023-09-19T12:34:37;101613.13;;;26.57
69552;BMP280;63774;45.292;11.784;2023-09-19T12:39:38;101612.06;;;26.57
69552;BMP280;63774;45.292;11.784;2023-09-19T12:42:08;101611.57;;;26.55
69552;BMP280;63774;45.292;11.784;2023-09-19T12:44:38;101612.76;;;26.56
69552;BMP280;63774;45.292;11.784;2023-09-19T12:47:15;101617.52;;;26.57
69552;BMP280;63774;45.292;11.784;2023-09-19T12:52:43;101613.74;;;26.58
69552;BMP280;63774;45.292;11.784;2023-09-19T12:55:31;101611.86;;;26.58
69552;BMP280;63774;45.292;11.784;2023-09-19T13:00:39;101612.91;;;26.57
69552;BMP280;63774;45.292;11.784;2023-09-19T13:05:55;101609.95;;;26.57
69552;BMP280;63774;45.292;11.784;2023-09-19T13:08:40;101608.55;;;26.57
69552;BMP280;63774;45.292;11.784;2023-09-19T13:11:14;101610.33;;;26.57
69552;BMP280;63774;45.292;11.784;2023-09-19T13:13:41;101608.39;;;26.58
69552;BMP280;63774;45.292;11.784;2023-09-19T13:16:07;101609.31;;;26.58
69552;BMP280;63774;45.292;11.784;2023-09-19T13:18:45;101605.95;;;26.59
69552;BMP280;63774;45.292;11.784;2023-09-19T13:21:12;101606.62;;;26.58
69552;BMP280;63774;45.292;11.784;2023-09-19T13:23:55;101605.52;;;26.59
69552;BMP280;63774;45.292;11.784;2023-09-19T13:26:27;101607.59;;;26.60
69552;BMP280;63774;45.292;11.784;2023-09-19T13:28:57;101605.60;;;26.60
69552;BMP280;63774;45.292;11.784;2023-09-19T13:31:22;101605.16;;;26.60
69552;BMP280;63774;45.292;11.784;2023-09-19T13:33:49;101604.34;;;26.59
69552;BMP280;63774;45.292;11.784;2023-09-19T13:36:15;101605.02;;;26.60
69552;BMP280;63774;45.292;11.784;2023-09-19T13:38:41;101603.63;;;26.61
69552;BMP280;63774;45.292;11.784;2023-09-19T13:41:10;101603.81;;;26.62
69552;BMP280;63774;45.292;11.784;2023-09-19T13:43:37;101603.06;;;26.61
69552;BMP280;63774;45.292;11.784;2023-09-19T13:46:03;101604.50;;;26.62
69552;BMP280;63774;45.292;11.784;2023-09-19T13:48:29;101602.56;;;26.61
69552;BMP280;63774;45.292;11.784;2023-09-19T13:50:55;101602.77;;;26.62
69552;BMP280;63774;45.292;11.784;2023-09-19T13:53:21;101599.09;;;26.63
69552;BMP280;63774;45.292;11.784;2023-09-19T13:55:46;101598.02;;;26.62
69552;BMP280;63774;45.292;11.784;2023-09-19T13:58:14;101598.04;;;26.63
69552;BMP280;63774;45.292;11.784;2023-09-19T14:00:39;101596.63;;;26.63
69552;BMP280;63774;45.292;11.784;2023-09-19T14:03:05;101595.77;;;26.65
69552;BMP280;63774;45.292;11.784;2023-09-19T14:05:31;101598.51;;;26.66
69552;BMP280;63774;45.292;11.784;2023-09-19T14:07:57;101600.42;;;26.67
69552;BMP280;63774;45.292;11.784;2023-09-19T14:10:25;101596.78;;;26.65
69552;BMP280;63774;45.292;11.784;2023-09-19T14:12:52;101596.64;;;26.67
69552;BMP280;63774;45.292;11.784;2023-09-19T14:15:18;101592.48;;;26.67
69552;BMP280;63774;45.292;11.784;2023-09-19T14:17:43;101592.23;;;26.67
69552;BMP280;63774;45.292;11.784;2023-09-19T14:20:11;101589.91;;;26.66
69552;BMP280;63774;45.292;11.784;2023-09-19T14:22:36;101590.27;;;26.68
69552;BMP280;63774;45.292;11.784;2023-09-19T14:25:05;101590.67;;;26.68
69552;BMP280;63774;45.292;11.784;2023-09-19T14:27:31;101592.16;;;26.69
69552;BMP280;63774;45.292;11.784;2023-09-19T14:29:56;101593.01;;;26.68
69552;BMP280;63774;45.292;11.784;2023-09-19T14:32:23;101589.66;;;26.69
69552;BMP280;63774;45.292;11.784;2023-09-19T14:34:48;101588.38;;;26.70
69552;BMP280;63774;45.292;11.784;2023-09-19T14:37:15;101585.83;;;26.70
69552;BMP280;63774;45.292;11.784;2023-09-19T14:39:42;101582.88;;;26.69
69552;BMP280;63774;45.292;11.784;2023-09-19T14:42:10;101587.15;;;26.72
69552;BMP280;63774;45.292;11.784;2023-09-19T14:44:36;101584.52;;;26.71
69552;BMP280;63774;45.292;11.784;2023-09-19T14:47:05;101583.86;;;26.71
69552;BMP280;63774;45.292;11.784;2023-09-19T14:49:36;101585.09;;;26.71
69552;BMP280;63774;45.292;11.784;2023-09-19T14:52:07;101586.05;;;26.73
69552;BMP280;63774;45.292;11.784;2023-09-19T14:54:33;101582.61;;;26.72
69552;BMP280;63774;45.292;11.784;2023-09-19T14:56:59;101584.05;;;26.72
69552;BMP280;63774;45.292;11.784;2023-09-19T14:59:34;101583.67;;;26.73